Terminal Aerodrome Forecast
Issued by NWS Blacksburg, VA

Current Version | Previous Version | Graphics & Text | Print | Product List | Glossary On
Versions: 1 2 3 4 5 6 7 8 9 10 11 12 13 14 15 16 17 18 19 20 21 22 23 24
000
FTUS41 KRNK 162349
TAFBLF
TAF
KBLF 162349Z 1700/1724 23003KT P6SM SCT040
     FM170400 17004KT P6SM OVC020
     FM170800 18005KT P6SM -SHRA OVC015
     FM171300 20007KT 4SM -SHRA BR SCT010 OVC020 WS020/23035KT
     FM171800 24012KT P6SM VCSH OVC050=

USA.gov is the U.S. government's official web portal to all federal, state and local government web resources and services.